sensor_id;sensor_type;location;lat;lon;timestamp;P1;durP1;ratioP1;P2;durP2;ratioP2
37065;SDS011;22981;43.080;25.550;2023-12-29T00:02:02;40.20;;;25.95;;
37065;SDS011;22981;43.080;25.550;2023-12-29T00:04:29;55.08;;;37.13;;
37065;SDS011;22981;43.080;25.550;2023-12-29T00:06:57;117.42;;;54.50;;
37065;SDS011;22981;43.080;25.550;2023-12-29T00:09:24;44.23;;;27.30;;
37065;SDS011;22981;43.080;25.550;2023-12-29T00:11:52;34.48;;;20.92;;
37065;SDS011;22981;43.080;25.550;2023-12-29T00:14:20;43.10;;;25.23;;
37065;SDS011;22981;43.080;25.550;2023-12-29T00:16:47;56.53;;;31.75;;
37065;SDS011;22981;43.080;25.550;2023-12-29T00:19:15;60.15;;;33.30;;
37065;SDS011;22981;43.080;25.550;2023-12-29T00:21:42;68.52;;;37.33;;
37065;SDS011;22981;43.080;25.550;2023-12-29T00:24:10;76.85;;;40.58;;
37065;SDS011;22981;43.080;25.550;2023-12-29T00:26:37;70.60;;;38.80;;
37065;SDS011;22981;43.080;25.550;2023-12-29T00:29:05;65.32;;;34.67;;
37065;SDS011;22981;43.080;25.550;2023-12-29T00:31:32;64.72;;;35.88;;
37065;SDS011;22981;43.080;25.550;2023-12-29T00:34:00;79.25;;;41.23;;
37065;SDS011;22981;43.080;25.550;2023-12-29T00:36:28;79.97;;;40.98;;
37065;SDS011;22981;43.080;25.550;2023-12-29T00:38:55;73.75;;;38.40;;
37065;SDS011;22981;43.080;25.550;2023-12-29T00:41:23;62.98;;;33.90;;
37065;SDS011;22981;43.080;25.550;2023-12-29T00:43:50;58.30;;;34.88;;
37065;SDS011;22981;43.080;25.550;2023-12-29T00:46:18;54.33;;;31.30;;
37065;SDS011;22981;43.080;25.550;2023-12-29T00:48:45;46.70;;;30.55;;
37065;SDS011;22981;43.080;25.550;2023-12-29T00:51:13;45.73;;;28.23;;
37065;SDS011;22981;43.080;25.550;2023-12-29T00:56:10;54.93;;;32.48;;
37065;SDS011;22981;43.080;25.550;2023-12-29T00:58:38;60.67;;;33.88;;
37065;SDS011;22981;43.080;25.550;2023-12-29T01:01:06;53.42;;;31.48;;
37065;SDS011;22981;43.080;25.550;2023-12-29T01:03:36;58.58;;;34.18;;
37065;SDS011;22981;43.080;25.550;2023-12-29T01:06:04;67.17;;;41.77;;
37065;SDS011;22981;43.080;25.550;2023-12-29T01:08:31;56.80;;;36.15;;
37065;SDS011;22981;43.080;25.550;2023-12-29T01:10:59;61.30;;;40.40;;
37065;SDS011;22981;43.080;25.550;2023-12-29T01:13:27;60.78;;;37.78;;
37065;SDS011;22981;43.080;25.550;2023-12-29T01:15:54;52.90;;;36.38;;
37065;SDS011;22981;43.080;25.550;2023-12-29T01:18:22;52.98;;;32.30;;
37065;SDS011;22981;43.080;25.550;2023-12-29T01:20:49;50.23;;;32.30;;
37065;SDS011;22981;43.080;25.550;2023-12-29T01:23:17;52.95;;;34.40;;
37065;SDS011;22981;43.080;25.550;2023-12-29T01:25:44;58.80;;;35.15;;
37065;SDS011;22981;43.080;25.550;2023-12-29T01:28:12;61.13;;;35.45;;
37065;SDS011;22981;43.080;25.550;2023-12-29T01:30:40;54.35;;;33.70;;
37065;SDS011;22981;43.080;25.550;2023-12-29T01:33:07;48.58;;;30.15;;
37065;SDS011;22981;43.080;25.550;2023-12-29T01:35:35;43.48;;;27.75;;
37065;SDS011;22981;43.080;25.550;2023-12-29T01:38:02;42.70;;;26.82;;
37065;SDS011;22981;43.080;25.550;2023-12-29T01:40:30;43.00;;;27.05;;
37065;SDS011;22981;43.080;25.550;2023-12-29T01:42:57;33.35;;;21.60;;
37065;SDS011;22981;43.080;25.550;2023-12-29T01:45:25;34.78;;;23.40;;
37065;SDS011;22981;43.080;25.550;2023-12-29T01:47:53;37.67;;;23.87;;
37065;SDS011;22981;43.080;25.550;2023-12-29T01:50:21;35.35;;;24.82;;
37065;SDS011;22981;43.080;25.550;2023-12-29T01:52:49;39.35;;;24.67;;
37065;SDS011;22981;43.080;25.550;2023-12-29T01:55:20;36.03;;;23.60;;
37065;SDS011;22981;43.080;25.550;2023-12-29T01:57:48;39.75;;;24.02;;
37065;SDS011;22981;43.080;25.550;2023-12-29T02:00:16;40.33;;;25.37;;
37065;SDS011;22981;43.080;25.550;2023-12-29T02:02:45;39.05;;;24.85;;
37065;SDS011;22981;43.080;25.550;2023-12-29T02:05:14;36.20;;;24.32;;
37065;SDS011;22981;43.080;25.550;2023-12-29T02:07:43;39.75;;;24.55;;
37065;SDS011;22981;43.080;25.550;2023-12-29T02:10:11;42.30;;;26.50;;
37065;SDS011;22981;43.080;25.550;2023-12-29T02:12:40;44.45;;;29.50;;
37065;SDS011;22981;43.080;25.550;2023-12-29T02:15:08;39.80;;;25.70;;
37065;SDS011;22981;43.080;25.550;2023-12-29T02:17:38;36.85;;;23.75;;
37065;SDS011;22981;43.080;25.550;2023-12-29T02:20:07;37.10;;;24.82;;
37065;SDS011;22981;43.080;25.550;2023-12-29T02:22:36;40.58;;;24.32;;
37065;SDS011;22981;43.080;25.550;2023-12-29T02:25:04;38.40;;;25.00;;
37065;SDS011;22981;43.080;25.550;2023-12-29T02:32:58;31.62;;;23.05;;
37065;SDS011;22981;43.080;25.550;2023-12-29T02:35:35;37.70;;;23.62;;
37065;SDS011;22981;43.080;25.550;2023-12-29T02:38:08;34.63;;;24.40;;
37065;SDS011;22981;43.080;25.550;2023-12-29T02:40:36;33.65;;;22.82;;
37065;SDS011;22981;43.080;25.550;2023-12-29T02:43:04;33.95;;;23.15;;
37065;SDS011;22981;43.080;25.550;2023-12-29T02:45:31;34.10;;;22.00;;
37065;SDS011;22981;43.080;25.550;2023-12-29T02:47:59;33.83;;;23.47;;
37065;SDS011;22981;43.080;25.550;2023-12-29T02:50:27;35.15;;;23.40;;
37065;SDS011;22981;43.080;25.550;2023-12-29T02:52:54;36.08;;;23.32;;
37065;SDS011;22981;43.080;25.550;2023-12-29T02:55:22;37.35;;;23.10;;
37065;SDS011;22981;43.080;25.550;2023-12-29T02:57:49;32.93;;;23.27;;
37065;SDS011;22981;43.080;25.550;2023-12-29T03:00:17;32.83;;;22.82;;
37065;SDS011;22981;43.080;25.550;2023-12-29T03:02:44;33.05;;;22.30;;
37065;SDS011;22981;43.080;25.550;2023-12-29T03:05:12;34.45;;;23.25;;
37065;SDS011;22981;43.080;25.550;2023-12-29T03:07:40;34.33;;;25.72;;
37065;SDS011;22981;43.080;25.550;2023-12-29T03:10:08;39.85;;;28.45;;
37065;SDS011;22981;43.080;25.550;2023-12-29T03:12:35;43.08;;;29.87;;
37065;SDS011;22981;43.080;25.550;2023-12-29T03:15:03;36.53;;;25.20;;
37065;SDS011;22981;43.080;25.550;2023-12-29T03:17:31;37.83;;;26.82;;
37065;SDS011;22981;43.080;25.550;2023-12-29T03:19:59;35.23;;;24.65;;
37065;SDS011;22981;43.080;25.550;2023-12-29T03:22:28;35.58;;;22.42;;
37065;SDS011;22981;43.080;25.550;2023-12-29T03:24:55;32.80;;;20.75;;
37065;SDS011;22981;43.080;25.550;2023-12-29T03:27:23;55.63;;;31.07;;
37065;SDS011;22981;43.080;25.550;2023-12-29T03:29:50;37.73;;;24.20;;
37065;SDS011;22981;43.080;25.550;2023-12-29T03:32:18;35.88;;;24.23;;
37065;SDS011;22981;43.080;25.550;2023-12-29T03:34:45;50.12;;;28.35;;
37065;SDS011;22981;43.080;25.550;2023-12-29T03:37:13;34.98;;;22.42;;
37065;SDS011;22981;43.080;25.550;2023-12-29T03:39:41;29.35;;;21.50;;
37065;SDS011;22981;43.080;25.550;2023-12-29T03:42:08;30.05;;;20.88;;
37065;SDS011;22981;43.080;25.550;2023-12-29T03:44:36;30.60;;;20.32;;
37065;SDS011;22981;43.080;25.550;2023-12-29T03:47:03;31.52;;;20.17;;
37065;SDS011;22981;43.080;25.550;2023-12-29T03:49:31;31.90;;;21.07;;
37065;SDS011;22981;43.080;25.550;2023-12-29T03:51:59;30.77;;;21.23;;
37065;SDS011;22981;43.080;25.550;2023-12-29T03:54:27;27.52;;;19.85;;
37065;SDS011;22981;43.080;25.550;2023-12-29T03:56:54;31.62;;;20.57;;
37065;SDS011;22981;43.080;25.550;2023-12-29T03:59:22;29.00;;;21.15;;
37065;SDS011;22981;43.080;25.550;2023-12-29T04:01:50;29.82;;;19.57;;
37065;SDS011;22981;43.080;25.550;2023-12-29T04:04:17;34.00;;;20.68;;
37065;SDS011;22981;43.080;25.550;2023-12-29T04:06:45;32.53;;;20.57;;
37065;SDS011;22981;43.080;25.550;2023-12-29T04:09:12;32.53;;;22.20;;
37065;SDS011;22981;43.080;25.550;2023-12-29T04:11:40;31.75;;;20.60;;
37065;SDS011;22981;43.080;25.550;2023-12-29T04:14:07;30.43;;;20.50;;
37065;SDS011;22981;43.080;25.550;2023-12-29T04:16:37;33.30;;;21.87;;
37065;SDS011;22981;43.080;25.550;2023-12-29T04:19:05;32.98;;;22.62;;
37065;SDS011;22981;43.080;25.550;2023-12-29T04:21:33;34.53;;;22.20;;
37065;SDS011;22981;43.080;25.550;2023-12-29T04:24:00;32.30;;;21.90;;
37065;SDS011;22981;43.080;25.550;2023-12-29T04:26:28;34.65;;;22.90;;
37065;SDS011;22981;43.080;25.550;2023-12-29T04:28:55;33.65;;;22.25;;
37065;SDS011;22981;43.080;25.550;2023-12-29T04:31:23;34.85;;;22.60;;
37065;SDS011;22981;43.080;25.550;2023-12-29T04:33:50;37.20;;;24.80;;
37065;SDS011;22981;43.080;25.550;2023-12-29T04:36:18;40.38;;;24.47;;
37065;SDS011;22981;43.080;25.550;2023-12-29T04:38:46;36.70;;;24.57;;
37065;SDS011;22981;43.080;25.550;2023-12-29T04:41:14;40.33;;;23.77;;
37065;SDS011;22981;43.080;25.550;2023-12-29T04:43:41;36.05;;;23.95;;
37065;SDS011;22981;43.080;25.550;2023-12-29T04:46:09;39.63;;;24.07;;
37065;SDS011;22981;43.080;25.550;2023-12-29T04:48:36;36.38;;;23.40;;
37065;SDS011;22981;43.080;25.550;2023-12-29T04:51:04;38.28;;;23.62;;
37065;SDS011;22981;43.080;25.550;2023-12-29T04:53:31;34.40;;;22.65;;
37065;SDS011;22981;43.080;25.550;2023-12-29T04:55:59;33.33;;;21.93;;
37065;SDS011;22981;43.080;25.550;2023-12-29T04:58:27;35.55;;;22.77;;
37065;SDS011;22981;43.080;25.550;2023-12-29T05:00:54;34.92;;;20.80;;
37065;SDS011;22981;43.080;25.550;2023-12-29T05:03:22;32.90;;;21.40;;
37065;SDS011;22981;43.080;25.550;2023-12-29T05:05:49;35.50;;;22.17;;
37065;SDS011;22981;43.080;25.550;2023-12-29T05:08:17;41.80;;;24.05;;
37065;SDS011;22981;43.080;25.550;2023-12-29T05:10:44;50.23;;;29.60;;
37065;SDS011;22981;43.080;25.550;2023-12-29T05:13:12;50.65;;;28.38;;
37065;SDS011;22981;43.080;25.550;2023-12-29T05:15:40;42.27;;;27.02;;
37065;SDS011;22981;43.080;25.550;2023-12-29T05:18:07;32.90;;;24.10;;
37065;SDS011;22981;43.080;25.550;2023-12-29T05:20:35;41.48;;;28.07;;
37065;SDS011;22981;43.080;25.550;2023-12-29T05:23:03;61.68;;;35.63;;
37065;SDS011;22981;43.080;25.550;2023-12-29T05:25:31;191.92;;;84.95;;
37065;SDS011;22981;43.080;25.550;2023-12-29T05:27:58;53.70;;;33.85;;
37065;SDS011;22981;43.080;25.550;2023-12-29T05:30:26;67.17;;;39.60;;
37065;SDS011;22981;43.080;25.550;2023-12-29T05:32:55;54.42;;;33.90;;
37065;SDS011;22981;43.080;25.550;2023-12-29T05:35:23;35.90;;;24.18;;
37065;SDS011;22981;43.080;25.550;2023-12-29T05:37:50;30.82;;;22.42;;
37065;SDS011;22981;43.080;25.550;2023-12-29T05:40:18;31.27;;;22.40;;
37065;SDS011;22981;43.080;25.550;2023-12-29T05:42:46;36.17;;;24.57;;
37065;SDS011;22981;43.080;25.550;2023-12-29T05:45:15;102.60;;;61.28;;
37065;SDS011;22981;43.080;25.550;2023-12-29T05:47:43;86.80;;;50.25;;
37065;SDS011;22981;43.080;25.550;2023-12-29T05:50:10;60.28;;;38.83;;
37065;SDS011;22981;43.080;25.550;2023-12-29T05:52:38;36.58;;;26.02;;
37065;SDS011;22981;43.080;25.550;2023-12-29T05:55:06;57.75;;;35.98;;
37065;SDS011;22981;43.080;25.550;2023-12-29T05:57:33;37.05;;;25.75;;
37065;SDS011;22981;43.080;25.550;2023-12-29T06:00:01;47.65;;;32.30;;
37065;SDS011;22981;43.080;25.550;2023-12-29T06:02:31;63.58;;;42.85;;
37065;SDS011;22981;43.080;25.550;2023-12-29T06:04:59;52.45;;;38.80;;
37065;SDS011;22981;43.080;25.550;2023-12-29T06:07:26;51.77;;;33.92;;
37065;SDS011;22981;43.080;25.550;2023-12-29T06:09:54;47.33;;;32.60;;
37065;SDS011;22981;43.080;25.550;2023-12-29T06:12:22;51.77;;;35.05;;
37065;SDS011;22981;43.080;25.550;2023-12-29T06:14:49;50.23;;;33.98;;
37065;SDS011;22981;43.080;25.550;2023-12-29T06:17:17;55.88;;;33.60;;
37065;SDS011;22981;43.080;25.550;2023-12-29T06:19:44;51.00;;;38.23;;
37065;SDS011;22981;43.080;25.550;2023-12-29T06:22:12;59.80;;;41.63;;
37065;SDS011;22981;43.080;25.550;2023-12-29T06:24:40;66.75;;;44.95;;
37065;SDS011;22981;43.080;25.550;2023-12-29T06:27:11;68.33;;;41.55;;
37065;SDS011;22981;43.080;25.550;2023-12-29T06:29:40;49.35;;;30.48;;
37065;SDS011;22981;43.080;25.550;2023-12-29T06:32:08;44.23;;;29.10;;
37065;SDS011;22981;43.080;25.550;2023-12-29T06:34:36;38.53;;;26.93;;
37065;SDS011;22981;43.080;25.550;2023-12-29T06:37:03;49.45;;;33.08;;
37065;SDS011;22981;43.080;25.550;2023-12-29T06:39:31;56.80;;;38.05;;
37065;SDS011;22981;43.080;25.550;2023-12-29T06:41:58;80.40;;;47.15;;
37065;SDS011;22981;43.080;25.550;2023-12-29T06:44:26;69.97;;;43.17;;
37065;SDS011;22981;43.080;25.550;2023-12-29T06:46:54;59.27;;;37.25;;
37065;SDS011;22981;43.080;25.550;2023-12-29T06:49:21;43.98;;;30.05;;
37065;SDS011;22981;43.080;25.550;2023-12-29T06:51:49;53.45;;;32.17;;
37065;SDS011;22981;43.080;25.550;2023-12-29T06:54:17;48.78;;;32.75;;
37065;SDS011;22981;43.080;25.550;2023-12-29T06:56:45;48.23;;;30.60;;
37065;SDS011;22981;43.080;25.550;2023-12-29T06:59:14;40.60;;;27.40;;
37065;SDS011;22981;43.080;25.550;2023-12-29T07:01:41;36.03;;;27.22;;
37065;SDS011;22981;43.080;25.550;2023-12-29T07:04:09;44.25;;;29.15;;
37065;SDS011;22981;43.080;25.550;2023-12-29T07:06:37;50.60;;;31.05;;
37065;SDS011;22981;43.080;25.550;2023-12-29T07:09:04;42.48;;;29.42;;
37065;SDS011;22981;43.080;25.550;2023-12-29T07:11:33;44.05;;;29.02;;
37065;SDS011;22981;43.080;25.550;2023-12-29T07:14:01;45.25;;;30.10;;
37065;SDS011;22981;43.080;25.550;2023-12-29T07:16:29;44.88;;;32.40;;
37065;SDS011;22981;43.080;25.550;2023-12-29T07:18:56;54.58;;;34.30;;
37065;SDS011;22981;43.080;25.550;2023-12-29T07:21:24;57.03;;;38.20;;
37065;SDS011;22981;43.080;25.550;2023-12-29T07:23:51;60.23;;;41.90;;
37065;SDS011;22981;43.080;25.550;2023-12-29T07:26:19;54.03;;;38.83;;
37065;SDS011;22981;43.080;25.550;2023-12-29T07:28:46;53.42;;;38.33;;
37065;SDS011;22981;43.080;25.550;2023-12-29T07:31:16;58.48;;;41.28;;
37065;SDS011;22981;43.080;25.550;2023-12-29T07:33:43;56.88;;;41.37;;
37065;SDS011;22981;43.080;25.550;2023-12-29T07:36:11;53.87;;;38.48;;
37065;SDS011;22981;43.080;25.550;2023-12-29T07:38:38;50.65;;;38.45;;
37065;SDS011;22981;43.080;25.550;2023-12-29T07:41:08;54.38;;;39.25;;
37065;SDS011;22981;43.080;25.550;2023-12-29T07:43:35;54.65;;;39.70;;
37065;SDS011;22981;43.080;25.550;2023-12-29T07:46:03;56.65;;;39.45;;
37065;SDS011;22981;43.080;25.550;2023-12-29T07:48:31;56.48;;;36.55;;
37065;SDS011;22981;43.080;25.550;2023-12-29T07:50:58;49.15;;;33.15;;
37065;SDS011;22981;43.080;25.550;2023-12-29T07:53:29;43.98;;;32.25;;
37065;SDS011;22981;43.080;25.550;2023-12-29T07:55:56;48.83;;;34.25;;
37065;SDS011;22981;43.080;25.550;2023-12-29T07:58:24;55.50;;;36.20;;
37065;SDS011;22981;43.080;25.550;2023-12-29T08:00:51;48.38;;;31.82;;
37065;SDS011;22981;43.080;25.550;2023-12-29T08:03:19;71.75;;;46.28;;
37065;SDS011;22981;43.080;25.550;2023-12-29T08:05:46;62.70;;;40.50;;
37065;SDS011;22981;43.080;25.550;2023-12-29T08:08:14;55.58;;;35.30;;
37065;SDS011;22981;43.080;25.550;2023-12-29T08:10:42;39.27;;;27.93;;
37065;SDS011;22981;43.080;25.550;2023-12-29T08:13:09;40.38;;;26.25;;
37065;SDS011;22981;43.080;25.550;2023-12-29T08:15:37;29.98;;;21.82;;
37065;SDS011;22981;43.080;25.550;2023-12-29T08:18:05;27.75;;;19.32;;
37065;SDS011;22981;43.080;25.550;2023-12-29T08:20:32;33.05;;;21.40;;
37065;SDS011;22981;43.080;25.550;2023-12-29T08:23:01;30.35;;;21.52;;
37065;SDS011;22981;43.080;25.550;2023-12-29T08:25:29;27.45;;;19.35;;
37065;SDS011;22981;43.080;25.550;2023-12-29T08:27:57;31.82;;;22.90;;
37065;SDS011;22981;43.080;25.550;2023-12-29T08:30:24;26.05;;;19.87;;
37065;SDS011;22981;43.080;25.550;2023-12-29T08:32:52;31.40;;;21.77;;
37065;SDS011;22981;43.080;25.550;2023-12-29T08:35:19;19.48;;;14.47;;
37065;SDS011;22981;43.080;25.550;2023-12-29T08:37:47;17.25;;;11.85;;
37065;SDS011;22981;43.080;25.550;2023-12-29T08:40:15;13.58;;;10.10;;
37065;SDS011;22981;43.080;25.550;2023-12-29T08:42:42;17.07;;;10.72;;
37065;SDS011;22981;43.080;25.550;2023-12-29T08:45:10;13.18;;;9.75;;
37065;SDS011;22981;43.080;25.550;2023-12-29T08:47:37;14.93;;;9.98;;
37065;SDS011;22981;43.080;25.550;2023-12-29T08:50:05;15.83;;;12.07;;
37065;SDS011;22981;43.080;25.550;2023-12-29T08:52:33;16.32;;;12.47;;
37065;SDS011;22981;43.080;25.550;2023-12-29T08:55:01;19.95;;;10.80;;
37065;SDS011;22981;43.080;25.550;2023-12-29T08:57:30;16.52;;;11.55;;
37065;SDS011;22981;43.080;25.550;2023-12-29T08:59:58;13.05;;;9.80;;
37065;SDS011;22981;43.080;25.550;2023-12-29T09:02:26;16.12;;;10.38;;
37065;SDS011;22981;43.080;25.550;2023-12-29T09:04:53;12.90;;;9.13;;
37065;SDS011;22981;43.080;25.550;2023-12-29T09:07:21;13.38;;;8.48;;
37065;SDS011;22981;43.080;25.550;2023-12-29T09:09:48;10.03;;;8.13;;
37065;SDS011;22981;43.080;25.550;2023-12-29T09:12:16;12.13;;;8.20;;
37065;SDS011;22981;43.080;25.550;2023-12-29T09:14:44;11.18;;;8.00;;
37065;SDS011;22981;43.080;25.550;2023-12-29T09:17:11;12.90;;;9.35;;
37065;SDS011;22981;43.080;25.550;2023-12-29T09:19:39;15.05;;;10.53;;
37065;SDS011;22981;43.080;25.550;2023-12-29T09:22:07;11.35;;;9.13;;
37065;SDS011;22981;43.080;25.550;2023-12-29T09:24:34;13.40;;;9.18;;
37065;SDS011;22981;43.080;25.550;2023-12-29T09:27:02;14.63;;;10.43;;
37065;SDS011;22981;43.080;25.550;2023-12-29T09:29:30;15.70;;;9.83;;
37065;SDS011;22981;43.080;25.550;2023-12-29T09:31:58;17.05;;;9.78;;
37065;SDS011;22981;43.080;25.550;2023-12-29T09:34:25;14.03;;;9.83;;
37065;SDS011;22981;43.080;25.550;2023-12-29T09:36:53;13.68;;;9.55;;
37065;SDS011;22981;43.080;25.550;2023-12-29T09:39:20;15.78;;;11.03;;
37065;SDS011;22981;43.080;25.550;2023-12-29T09:41:49;13.83;;;10.28;;
37065;SDS011;22981;43.080;25.550;2023-12-29T09:44:21;16.82;;;11.57;;
37065;SDS011;22981;43.080;25.550;2023-12-29T09:46:50;17.55;;;12.58;;
37065;SDS011;22981;43.080;25.550;2023-12-29T09:49:20;21.12;;;12.45;;
37065;SDS011;22981;43.080;25.550;2023-12-29T09:51:48;18.87;;;12.78;;
37065;SDS011;22981;43.080;25.550;2023-12-29T09:54:16;18.70;;;12.50;;
37065;SDS011;22981;43.080;25.550;2023-12-29T09:56:44;22.45;;;13.45;;
37065;SDS011;22981;43.080;25.550;2023-12-29T09:59:12;19.48;;;13.13;;
37065;SDS011;22981;43.080;25.550;2023-12-29T10:01:41;20.77;;;13.72;;
37065;SDS011;22981;43.080;25.550;2023-12-29T10:04:11;20.40;;;12.45;;
37065;SDS011;22981;43.080;25.550;2023-12-29T10:06:41;17.75;;;12.43;;
37065;SDS011;22981;43.080;25.550;2023-12-29T10:09:12;19.00;;;13.40;;
37065;SDS011;22981;43.080;25.550;2023-12-29T10:11:42;19.95;;;13.32;;
37065;SDS011;22981;43.080;25.550;2023-12-29T10:14:21;22.55;;;14.90;;
37065;SDS011;22981;43.080;25.550;2023-12-29T10:16:58;19.60;;;14.15;;
37065;SDS011;22981;43.080;25.550;2023-12-29T10:19:35;19.80;;;13.70;;
37065;SDS011;22981;43.080;25.550;2023-12-29T10:22:21;16.00;;;10.20;;
37065;SDS011;22981;43.080;25.550;2023-12-29T10:25:06;14.95;;;10.95;;
37065;SDS011;22981;43.080;25.550;2023-12-29T10:27:35;15.35;;;10.50;;
37065;SDS011;22981;43.080;25.550;2023-12-29T10:30:03;15.80;;;10.00;;
37065;SDS011;22981;43.080;25.550;2023-12-29T10:32:32;15.78;;;10.25;;
37065;SDS011;22981;43.080;25.550;2023-12-29T10:35:09;14.07;;;9.73;;
37065;SDS011;22981;43.080;25.550;2023-12-29T10:37:37;17.07;;;12.78;;
37065;SDS011;22981;43.080;25.550;2023-12-29T10:40:05;12.58;;;8.10;;
37065;SDS011;22981;43.080;25.550;2023-12-29T10:42:34;14.10;;;7.35;;
37065;SDS011;22981;43.080;25.550;2023-12-29T10:45:10;7.30;;;5.22;;
37065;SDS011;22981;43.080;25.550;2023-12-29T10:47:35;8.25;;;6.08;;
37065;SDS011;22981;43.080;25.550;2023-12-29T10:50:05;6.25;;;4.03;;
37065;SDS011;22981;43.080;25.550;2023-12-29T10:52:32;8.93;;;4.97;;
37065;SDS011;22981;43.080;25.550;2023-12-29T10:55:05;6.75;;;4.67;;
37065;SDS011;22981;43.080;25.550;2023-12-29T10:57:34;8.17;;;4.83;;
37065;SDS011;22981;43.080;25.550;2023-12-29T11:00:02;8.43;;;5.00;;
37065;SDS011;22981;43.080;25.550;2023-12-29T11:02:32;9.10;;;6.65;;
37065;SDS011;22981;43.080;25.550;2023-12-29T11:07:35;8.23;;;5.25;;
37065;SDS011;22981;43.080;25.550;2023-12-29T11:10:07;7.05;;;4.35;;
37065;SDS011;22981;43.080;25.550;2023-12-29T11:12:36;7.72;;;4.40;;
37065;SDS011;22981;43.080;25.550;2023-12-29T11:15:05;5.60;;;4.10;;
37065;SDS011;22981;43.080;25.550;2023-12-29T11:17:34;6.78;;;4.15;;
37065;SDS011;22981;43.080;25.550;2023-12-29T11:20:03;7.92;;;3.80;;
37065;SDS011;22981;43.080;25.550;2023-12-29T11:22:31;5.12;;;3.58;;
37065;SDS011;22981;43.080;25.550;2023-12-29T11:24:59;7.37;;;4.62;;
37065;SDS011;22981;43.080;25.550;2023-12-29T11:27:29;8.23;;;4.53;;
37065;SDS011;22981;43.080;25.550;2023-12-29T11:30:00;7.87;;;4.62;;
37065;SDS011;22981;43.080;25.550;2023-12-29T11:32:37;4.87;;;3.87;;
37065;SDS011;22981;43.080;25.550;2023-12-29T11:35:10;10.00;;;4.78;;
37065;SDS011;22981;43.080;25.550;2023-12-29T11:42:49;6.22;;;4.30;;
37065;SDS011;22981;43.080;25.550;2023-12-29T11:45:29;7.72;;;4.60;;
37065;SDS011;22981;43.080;25.550;2023-12-29T11:48:01;7.67;;;4.62;;
37065;SDS011;22981;43.080;25.550;2023-12-29T11:50:30;6.55;;;4.20;;
37065;SDS011;22981;43.080;25.550;2023-12-29T11:52:59;6.80;;;3.72;;
37065;SDS011;22981;43.080;25.550;2023-12-29T11:55:30;4.67;;;3.42;;
37065;SDS011;22981;43.080;25.550;2023-12-29T11:58:23;5.33;;;3.40;;
37065;SDS011;22981;43.080;25.550;2023-12-29T12:00:55;4.45;;;3.42;;
37065;SDS011;22981;43.080;25.550;2023-12-29T12:03:24;6.87;;;3.70;;
37065;SDS011;22981;43.080;25.550;2023-12-29T12:05:53;6.28;;;3.65;;
37065;SDS011;22981;43.080;25.550;2023-12-29T12:08:26;5.85;;;3.60;;
37065;SDS011;22981;43.080;25.550;2023-12-29T12:14:01;8.43;;;4.22;;
37065;SDS011;22981;43.080;25.550;2023-12-29T12:19:15;5.83;;;3.95;;
37065;SDS011;22981;43.080;25.550;2023-12-29T12:21:45;7.40;;;3.92;;
37065;SDS011;22981;43.080;25.550;2023-12-29T12:24:21;7.45;;;4.80;;
37065;SDS011;22981;43.080;25.550;2023-12-29T12:26:45;5.37;;;3.40;;
37065;SDS011;22981;43.080;25.550;2023-12-29T12:29:14;8.43;;;5.25;;
37065;SDS011;22981;43.080;25.550;2023-12-29T12:31:56;5.60;;;3.60;;
37065;SDS011;22981;43.080;25.550;2023-12-29T12:34:24;6.62;;;3.95;;
37065;SDS011;22981;43.080;25.550;2023-12-29T12:36:52;4.90;;;3.60;;
37065;SDS011;22981;43.080;25.550;2023-12-29T12:39:22;8.73;;;4.05;;
37065;SDS011;22981;43.080;25.550;2023-12-29T12:41:50;6.30;;;4.03;;
37065;SDS011;22981;43.080;25.550;2023-12-29T12:44:17;7.47;;;4.12;;
37065;SDS011;22981;43.080;25.550;2023-12-29T12:46:50;6.15;;;3.50;;
37065;SDS011;22981;43.080;25.550;2023-12-29T12:49:19;6.65;;;4.00;;
37065;SDS011;22981;43.080;25.550;2023-12-29T12:51:47;8.20;;;4.25;;
37065;SDS011;22981;43.080;25.550;2023-12-29T12:54:20;6.83;;;3.50;;
37065;SDS011;22981;43.080;25.550;2023-12-29T12:56:45;6.78;;;4.53;;
37065;SDS011;22981;43.080;25.550;2023-12-29T12:59:13;7.33;;;4.05;;
37065;SDS011;22981;43.080;25.550;2023-12-29T13:01:42;7.83;;;4.72;;
37065;SDS011;22981;43.080;25.550;2023-12-29T13:04:10;6.40;;;4.60;;
37065;SDS011;22981;43.080;25.550;2023-12-29T13:06:41;6.35;;;4.47;;
37065;SDS011;22981;43.080;25.550;2023-12-29T13:09:10;5.58;;;3.80;;
37065;SDS011;22981;43.080;25.550;2023-12-29T13:11:38;9.68;;;5.45;;
37065;SDS011;22981;43.080;25.550;2023-12-29T13:14:09;5.37;;;4.15;;
37065;SDS011;22981;43.080;25.550;2023-12-29T13:16:38;9.25;;;5.92;;
37065;SDS011;22981;43.080;25.550;2023-12-29T13:19:15;7.37;;;5.03;;
37065;SDS011;22981;43.080;25.550;2023-12-29T13:21:50;12.88;;;7.62;;
37065;SDS011;22981;43.080;25.550;2023-12-29T13:24:22;29.57;;;17.00;;
37065;SDS011;22981;43.080;25.550;2023-12-29T13:26:54;7.45;;;4.60;;
37065;SDS011;22981;43.080;25.550;2023-12-29T13:29:33;7.08;;;5.42;;
37065;SDS011;22981;43.080;25.550;2023-12-29T13:32:10;14.07;;;10.88;;
37065;SDS011;22981;43.080;25.550;2023-12-29T13:34:37;7.67;;;5.15;;
37065;SDS011;22981;43.080;25.550;2023-12-29T13:37:14;6.28;;;3.70;;
37065;SDS011;22981;43.080;25.550;2023-12-29T13:40:27;6.78;;;3.75;;
37065;SDS011;22981;43.080;25.550;2023-12-29T13:42:18;5.37;;;3.50;;
37065;SDS011;22981;43.080;25.550;2023-12-29T13:44:47;5.78;;;3.90;;
37065;SDS011;22981;43.080;25.550;2023-12-29T13:47:17;5.95;;;4.25;;
37065;SDS011;22981;43.080;25.550;2023-12-29T13:49:46;6.37;;;3.90;;
37065;SDS011;22981;43.080;25.550;2023-12-29T13:52:14;5.60;;;3.67;;
37065;SDS011;22981;43.080;25.550;2023-12-29T13:54:44;4.55;;;3.70;;
37065;SDS011;22981;43.080;25.550;2023-12-29T13:57:12;5.87;;;4.30;;
37065;SDS011;22981;43.080;25.550;2023-12-29T13:59:40;5.95;;;3.60;;
37065;SDS011;22981;43.080;25.550;2023-12-29T14:02:20;5.47;;;3.62;;
37065;SDS011;22981;43.080;25.550;2023-12-29T14:05:15;6.17;;;3.47;;
37065;SDS011;22981;43.080;25.550;2023-12-29T14:07:52;8.28;;;3.85;;
37065;SDS011;22981;43.080;25.550;2023-12-29T14:10:21;5.08;;;3.58;;
37065;SDS011;22981;43.080;25.550;2023-12-29T14:12:48;7.35;;;4.62;;
37065;SDS011;22981;43.080;25.550;2023-12-29T14:15:16;6.65;;;5.08;;
37065;SDS011;22981;43.080;25.550;2023-12-29T14:17:43;7.97;;;5.08;;
37065;SDS011;22981;43.080;25.550;2023-12-29T14:20:11;9.15;;;5.00;;
37065;SDS011;22981;43.080;25.550;2023-12-29T14:22:40;9.15;;;4.62;;
37065;SDS011;22981;43.080;25.550;2023-12-29T14:25:07;5.83;;;4.08;;
37065;SDS011;22981;43.080;25.550;2023-12-29T14:27:36;6.37;;;4.62;;
37065;SDS011;22981;43.080;25.550;2023-12-29T14:30:16;6.67;;;4.78;;
37065;SDS011;22981;43.080;25.550;2023-12-29T14:32:37;8.75;;;5.83;;
37065;SDS011;22981;43.080;25.550;2023-12-29T14:35:06;9.63;;;5.87;;
37065;SDS011;22981;43.080;25.550;2023-12-29T14:37:35;9.90;;;5.70;;
37065;SDS011;22981;43.080;25.550;2023-12-29T14:40:03;10.60;;;5.85;;
37065;SDS011;22981;43.080;25.550;2023-12-29T14:42:31;8.80;;;5.08;;
37065;SDS011;22981;43.080;25.550;2023-12-29T14:44:59;7.70;;;5.28;;
37065;SDS011;22981;43.080;25.550;2023-12-29T14:47:26;10.58;;;5.50;;